Walnut, Iowa
Current Conditions -  °F | °C
As of 5:55 PM on Friday 19 Dec 2014 (Local Time) from KHNR Reporting Station
Overcast Overcast  
Wind Chill: 23°   Ceiling: 1100
Heat Index: 30°   Visibility: 10mi
Dew Point: 30°   Wind: 8mph
Humidity: 100%   Direction: 160°SSE
Pressure: 30.19"   Gusts: NA
Location:  41.48°N, 95.22°W
Report Text: KHNR 192355Z AUTO 16007KT 10SM OVC011 M01/M01 A3019 RMK AO2
Loading
Personal Weather Stations






























Interactive Weather Map New forecast layout! Learn more

10-Day Weather Forecast

Advertisements
Track Severe Weather on mobile